Copiapo, Chile

3:51 AM CLT on August 28, 2014 (GMT -0400)
Desierto de Atacama Airpo | Change Station
CLOSE
Current Station
Airport
Location: Desierto de Atacama Airpo,
Elevation: 689 ft
Nearby Weather Stations

Elev 689 ft 27.26 °S, 70.77 °W | Updated 51 minutes ago

Clear
Clear
43 °F
Feels Like 40 °F
N
5
Wind Variable Wind from East

Today
High -- | Low -- °F
--% Chance of Precip.
Yesterday
High -- | Low -- °F
Precip. -- in
6:59 AM 6:26 PM
Waxing Crescent, 7% visible
Pressure 30.01 in
Visibility 6.2 miles
Clouds
Windchill 40 °F
Dew Point 39 °F
Humidity 87%
Rainfall 0.00 in
Snow Depth Not available.
UV Not available.
Pollen Not available.
Air Quality Not available.
Flu Activity Not available.
METAR SCAT 280700Z AUTO 10004KT 9999 // NCD 06/04 Q1016

More Conditions Fewer Conditions

Pressure 30.01 in
Visibility 6.2 miles
Clouds
Windchill 40 °F
Dew Point 39 °F
Humidity 87%
Rainfall 0.00 in
Snow Depth Not available.
UV Not available.
Pollen Not available.
Air Quality Not available.
Flu Activity Not available.
METAR SCAT 280700Z AUTO 10004KT 9999 // NCD 06/04 Q1016

More Conditions Fewer Conditions

10-Day Weather Forecast

Almanac

Astronomy

Aug. 28, 2014 Rise Set
Actual Time 6:59 AM CLT 6:26 PM CLT
Civil Twilight 6:35 AM CLT 6:50 PM CLT
Nautical Twilight 6:08 AM CLT 7:17 PM CLT
Astronomical Twilight 5:41 AM CLT 7:44 PM CLT
Moon 8:32 AM CLT 9:14 PM CLT
Length of Visible Light 12h 14m
Length of Day
11h 27m
Tomorrow will be 1m 30s longer.
Waxing Crescent, 7% of the Moon is Illuminated
Today
Waxing Crescent
Sep 2
First Quarter
Sep 8
Full
Sep 15
Last Quarter
Sep 24
New

Yesterday's Extremes

Country Highs Country Lows

Community

WunderPhotos

Upload Photos

1,747,916 photos uploaded!

Nearby

Snow Depth

Not available.

Earthquake Activity

City Distance Mag. Time & Date
No recent earthquake activity has been reported nearby.
Minimum magnitude displayed is 2.5.

Coastal Water Temperatures

Place Temperature
No Stations Reporting

Nearby Weather Stations